sensor_id;sensor_type;location;lat;lon;timestamp;P1;durP1;ratioP1;P2;durP2;ratioP2
4452;SDS011;2239;48.152;11.584;2023-05-07T00:01:35;4.80;;;2.37;;
4452;SDS011;2239;48.152;11.584;2023-05-07T00:04:00;3.13;;;1.83;;
4452;SDS011;2239;48.152;11.584;2023-05-07T00:06:26;4.93;;;2.40;;
4452;SDS011;2239;48.152;11.584;2023-05-07T00:08:53;4.57;;;2.43;;
4452;SDS011;2239;48.152;11.584;2023-05-07T00:11:19;4.10;;;2.00;;
4452;SDS011;2239;48.152;11.584;2023-05-07T00:13:45;5.60;;;2.53;;
4452;SDS011;2239;48.152;11.584;2023-05-07T00:16:11;4.93;;;2.60;;
4452;SDS011;2239;48.152;11.584;2023-05-07T00:18:37;5.27;;;2.50;;
4452;SDS011;2239;48.152;11.584;2023-05-07T00:21:02;5.07;;;2.50;;
4452;SDS011;2239;48.152;11.584;2023-05-07T00:23:28;3.00;;;1.90;;
4452;SDS011;2239;48.152;11.584;2023-05-07T00:25:54;4.37;;;2.40;;
4452;SDS011;2239;48.152;11.584;2023-05-07T00:28:19;7.10;;;2.87;;
4452;SDS011;2239;48.152;11.584;2023-05-07T00:30:45;3.97;;;2.23;;
4452;SDS011;2239;48.152;11.584;2023-05-07T00:33:10;5.00;;;3.13;;
4452;SDS011;2239;48.152;11.584;2023-05-07T00:35:36;3.63;;;1.87;;
4452;SDS011;2239;48.152;11.584;2023-05-07T00:38:01;4.90;;;2.50;;
4452;SDS011;2239;48.152;11.584;2023-05-07T00:40:27;11.93;;;2.20;;
4452;SDS011;2239;48.152;11.584;2023-05-07T00:42:52;3.80;;;2.10;;
4452;SDS011;2239;48.152;11.584;2023-05-07T00:45:23;5.10;;;2.30;;
4452;SDS011;2239;48.152;11.584;2023-05-07T00:47:51;4.33;;;2.20;;
4452;SDS011;2239;48.152;11.584;2023-05-07T00:50:19;6.40;;;2.53;;
4452;SDS011;2239;48.152;11.584;2023-05-07T00:52:45;4.47;;;2.20;;
4452;SDS011;2239;48.152;11.584;2023-05-07T00:55:10;4.13;;;2.60;;
4452;SDS011;2239;48.152;11.584;2023-05-07T00:57:38;3.20;;;1.80;;
4452;SDS011;2239;48.152;11.584;2023-05-07T01:00:06;2.83;;;1.80;;
4452;SDS011;2239;48.152;11.584;2023-05-07T01:02:34;3.60;;;2.23;;
4452;SDS011;2239;48.152;11.584;2023-05-07T01:05:01;5.00;;;2.13;;
4452;SDS011;2239;48.152;11.584;2023-05-07T01:07:28;5.47;;;2.33;;
4452;SDS011;2239;48.152;11.584;2023-05-07T01:09:55;4.50;;;2.73;;
4452;SDS011;2239;48.152;11.584;2023-05-07T01:12:21;5.47;;;2.00;;
4452;SDS011;2239;48.152;11.584;2023-05-07T01:14:48;5.70;;;2.20;;
4452;SDS011;2239;48.152;11.584;2023-05-07T01:17:14;3.43;;;1.80;;
4452;SDS011;2239;48.152;11.584;2023-05-07T01:19:40;6.27;;;2.40;;
4452;SDS011;2239;48.152;11.584;2023-05-07T01:22:09;4.17;;;2.23;;
4452;SDS011;2239;48.152;11.584;2023-05-07T01:24:40;2.73;;;2.30;;
4452;SDS011;2239;48.152;11.584;2023-05-07T01:27:06;2.70;;;2.03;;
4452;SDS011;2239;48.152;11.584;2023-05-07T01:29:32;3.30;;;2.53;;
4452;SDS011;2239;48.152;11.584;2023-05-07T01:31:58;4.10;;;2.03;;
4452;SDS011;2239;48.152;11.584;2023-05-07T01:34:25;3.50;;;2.33;;
4452;SDS011;2239;48.152;11.584;2023-05-07T01:36:55;2.40;;;2.07;;
4452;SDS011;2239;48.152;11.584;2023-05-07T01:39:24;5.50;;;2.57;;
4452;SDS011;2239;48.152;11.584;2023-05-07T01:41:50;4.33;;;1.90;;
4452;SDS011;2239;48.152;11.584;2023-05-07T01:44:16;6.07;;;2.97;;
4452;SDS011;2239;48.152;11.584;2023-05-07T01:46:43;8.67;;;3.60;;
4452;SDS011;2239;48.152;11.584;2023-05-07T01:49:09;8.50;;;3.50;;
4452;SDS011;2239;48.152;11.584;2023-05-07T01:51:35;7.67;;;2.80;;
4452;SDS011;2239;48.152;11.584;2023-05-07T01:54:01;10.93;;;3.43;;
4452;SDS011;2239;48.152;11.584;2023-05-07T01:56:27;6.73;;;2.30;;
4452;SDS011;2239;48.152;11.584;2023-05-07T01:58:52;5.20;;;2.83;;
4452;SDS011;2239;48.152;11.584;2023-05-07T02:01:18;7.30;;;2.70;;
4452;SDS011;2239;48.152;11.584;2023-05-07T02:03:44;4.87;;;2.73;;
4452;SDS011;2239;48.152;11.584;2023-05-07T02:06:09;4.90;;;2.30;;
4452;SDS011;2239;48.152;11.584;2023-05-07T02:08:35;6.17;;;2.50;;
4452;SDS011;2239;48.152;11.584;2023-05-07T02:11:02;4.20;;;2.20;;
4452;SDS011;2239;48.152;11.584;2023-05-07T02:13:29;4.50;;;2.47;;
4452;SDS011;2239;48.152;11.584;2023-05-07T02:15:56;8.40;;;2.70;;
4452;SDS011;2239;48.152;11.584;2023-05-07T02:18:22;4.83;;;2.23;;
4452;SDS011;2239;48.152;11.584;2023-05-07T02:20:48;3.23;;;1.80;;
4452;SDS011;2239;48.152;11.584;2023-05-07T02:23:14;6.37;;;2.53;;
4452;SDS011;2239;48.152;11.584;2023-05-07T02:25:40;5.20;;;2.23;;
4452;SDS011;2239;48.152;11.584;2023-05-07T02:28:05;7.07;;;2.43;;
4452;SDS011;2239;48.152;11.584;2023-05-07T02:30:31;8.03;;;2.83;;
4452;SDS011;2239;48.152;11.584;2023-05-07T02:32:56;7.30;;;3.33;;
4452;SDS011;2239;48.152;11.584;2023-05-07T02:35:23;5.87;;;2.60;;
4452;SDS011;2239;48.152;11.584;2023-05-07T02:37:49;4.07;;;2.70;;
4452;SDS011;2239;48.152;11.584;2023-05-07T02:40:15;3.10;;;2.10;;
4452;SDS011;2239;48.152;11.584;2023-05-07T02:42:44;6.60;;;3.03;;
4452;SDS011;2239;48.152;11.584;2023-05-07T02:45:09;6.90;;;2.40;;
4452;SDS011;2239;48.152;11.584;2023-05-07T02:47:35;4.27;;;2.23;;
4452;SDS011;2239;48.152;11.584;2023-05-07T02:50:01;6.70;;;2.17;;
4452;SDS011;2239;48.152;11.584;2023-05-07T02:52:27;8.70;;;2.60;;
4452;SDS011;2239;48.152;11.584;2023-05-07T02:54:52;5.87;;;3.10;;
4452;SDS011;2239;48.152;11.584;2023-05-07T02:57:18;4.23;;;2.27;;
4452;SDS011;2239;48.152;11.584;2023-05-07T02:59:43;5.60;;;2.23;;
4452;SDS011;2239;48.152;11.584;2023-05-07T03:02:09;3.00;;;2.00;;
4452;SDS011;2239;48.152;11.584;2023-05-07T03:04:35;2.33;;;1.83;;
4452;SDS011;2239;48.152;11.584;2023-05-07T03:07:00;4.00;;;2.80;;
4452;SDS011;2239;48.152;11.584;2023-05-07T03:09:26;3.27;;;1.90;;
4452;SDS011;2239;48.152;11.584;2023-05-07T03:11:51;6.40;;;2.27;;
4452;SDS011;2239;48.152;11.584;2023-05-07T03:14:17;4.63;;;2.37;;
4452;SDS011;2239;48.152;11.584;2023-05-07T03:16:42;3.57;;;2.60;;
4452;SDS011;2239;48.152;11.584;2023-05-07T03:19:08;6.47;;;2.67;;
4452;SDS011;2239;48.152;11.584;2023-05-07T03:21:33;3.30;;;2.00;;
4452;SDS011;2239;48.152;11.584;2023-05-07T03:23:59;5.10;;;2.40;;
4452;SDS011;2239;48.152;11.584;2023-05-07T03:26:25;4.93;;;1.93;;
4452;SDS011;2239;48.152;11.584;2023-05-07T03:28:51;5.03;;;2.80;;
4452;SDS011;2239;48.152;11.584;2023-05-07T03:31:17;3.90;;;1.90;;
4452;SDS011;2239;48.152;11.584;2023-05-07T03:33:50;5.40;;;2.60;;
4452;SDS011;2239;48.152;11.584;2023-05-07T03:36:16;6.37;;;2.70;;
4452;SDS011;2239;48.152;11.584;2023-05-07T03:38:42;2.63;;;2.23;;
4452;SDS011;2239;48.152;11.584;2023-05-07T03:41:08;2.00;;;1.80;;
4452;SDS011;2239;48.152;11.584;2023-05-07T03:43:33;3.00;;;2.10;;
4452;SDS011;2239;48.152;11.584;2023-05-07T03:45:59;5.90;;;1.97;;
4452;SDS011;2239;48.152;11.584;2023-05-07T03:48:24;5.63;;;2.27;;
4452;SDS011;2239;48.152;11.584;2023-05-07T03:50:50;7.23;;;2.37;;
4452;SDS011;2239;48.152;11.584;2023-05-07T03:53:16;5.03;;;2.40;;
4452;SDS011;2239;48.152;11.584;2023-05-07T03:55:42;4.40;;;2.30;;
4452;SDS011;2239;48.152;11.584;2023-05-07T03:58:07;3.13;;;2.13;;
4452;SDS011;2239;48.152;11.584;2023-05-07T04:00:33;8.30;;;2.67;;
4452;SDS011;2239;48.152;11.584;2023-05-07T04:03:03;6.70;;;2.17;;
4452;SDS011;2239;48.152;11.584;2023-05-07T04:05:29;4.43;;;2.20;;
4452;SDS011;2239;48.152;11.584;2023-05-07T04:07:55;9.37;;;3.03;;
4452;SDS011;2239;48.152;11.584;2023-05-07T04:10:21;3.63;;;2.30;;
4452;SDS011;2239;48.152;11.584;2023-05-07T04:12:49;6.10;;;2.40;;
4452;SDS011;2239;48.152;11.584;2023-05-07T04:15:15;5.50;;;2.40;;
4452;SDS011;2239;48.152;11.584;2023-05-07T04:17:40;3.50;;;1.90;;
4452;SDS011;2239;48.152;11.584;2023-05-07T04:20:08;2.23;;;1.70;;
4452;SDS011;2239;48.152;11.584;2023-05-07T04:22:35;6.20;;;1.87;;
4452;SDS011;2239;48.152;11.584;2023-05-07T04:25:01;2.97;;;1.83;;
4452;SDS011;2239;48.152;11.584;2023-05-07T04:27:27;2.80;;;1.60;;
4452;SDS011;2239;48.152;11.584;2023-05-07T04:29:53;5.07;;;2.13;;
4452;SDS011;2239;48.152;11.584;2023-05-07T04:32:20;6.90;;;2.13;;
4452;SDS011;2239;48.152;11.584;2023-05-07T04:34:47;5.00;;;2.10;;
4452;SDS011;2239;48.152;11.584;2023-05-07T04:37:12;2.70;;;1.43;;
4452;SDS011;2239;48.152;11.584;2023-05-07T04:39:38;2.83;;;1.80;;
4452;SDS011;2239;48.152;11.584;2023-05-07T04:42:03;3.20;;;1.93;;
4452;SDS011;2239;48.152;11.584;2023-05-07T04:44:29;4.97;;;1.73;;
4452;SDS011;2239;48.152;11.584;2023-05-07T04:46:56;3.90;;;1.70;;
4452;SDS011;2239;48.152;11.584;2023-05-07T04:49:22;3.33;;;1.83;;
4452;SDS011;2239;48.152;11.584;2023-05-07T04:51:47;2.00;;;1.37;;
4452;SDS011;2239;48.152;11.584;2023-05-07T04:54:13;3.27;;;2.00;;
4452;SDS011;2239;48.152;11.584;2023-05-07T04:56:38;3.07;;;1.80;;
4452;SDS011;2239;48.152;11.584;2023-05-07T04:59:04;3.73;;;2.03;;
4452;SDS011;2239;48.152;11.584;2023-05-07T05:01:30;3.20;;;1.80;;
4452;SDS011;2239;48.152;11.584;2023-05-07T05:03:56;3.53;;;1.90;;
4452;SDS011;2239;48.152;11.584;2023-05-07T05:06:21;3.27;;;1.90;;
4452;SDS011;2239;48.152;11.584;2023-05-07T05:08:47;2.97;;;1.50;;
4452;SDS011;2239;48.152;11.584;2023-05-07T05:11:12;3.87;;;2.07;;
4452;SDS011;2239;48.152;11.584;2023-05-07T05:13:38;1.93;;;1.40;;
4452;SDS011;2239;48.152;11.584;2023-05-07T05:16:03;3.30;;;1.40;;
4452;SDS011;2239;48.152;11.584;2023-05-07T05:18:29;2.67;;;1.63;;
4452;SDS011;2239;48.152;11.584;2023-05-07T05:20:55;6.83;;;1.87;;
4452;SDS011;2239;48.152;11.584;2023-05-07T05:23:20;3.00;;;1.60;;
4452;SDS011;2239;48.152;11.584;2023-05-07T05:25:46;2.13;;;1.60;;
4452;SDS011;2239;48.152;11.584;2023-05-07T05:28:12;3.53;;;1.73;;
4452;SDS011;2239;48.152;11.584;2023-05-07T05:30:38;3.53;;;2.10;;
4452;SDS011;2239;48.152;11.584;2023-05-07T05:33:04;3.63;;;1.63;;
4452;SDS011;2239;48.152;11.584;2023-05-07T05:35:29;3.50;;;1.47;;
4452;SDS011;2239;48.152;11.584;2023-05-07T05:37:55;2.57;;;1.67;;
4452;SDS011;2239;48.152;11.584;2023-05-07T05:40:21;2.93;;;1.93;;
4452;SDS011;2239;48.152;11.584;2023-05-07T05:42:46;5.17;;;1.80;;
4452;SDS011;2239;48.152;11.584;2023-05-07T05:45:12;3.17;;;1.47;;
4452;SDS011;2239;48.152;11.584;2023-05-07T05:47:38;10.23;;;2.17;;
4452;SDS011;2239;48.152;11.584;2023-05-07T05:50:04;3.10;;;1.80;;
4452;SDS011;2239;48.152;11.584;2023-05-07T05:52:31;4.67;;;1.60;;
4452;SDS011;2239;48.152;11.584;2023-05-07T05:54:56;3.87;;;1.83;;
4452;SDS011;2239;48.152;11.584;2023-05-07T05:57:22;3.93;;;1.90;;
4452;SDS011;2239;48.152;11.584;2023-05-07T05:59:47;3.50;;;2.10;;
4452;SDS011;2239;48.152;11.584;2023-05-07T06:02:13;4.17;;;1.67;;
4452;SDS011;2239;48.152;11.584;2023-05-07T06:04:39;3.50;;;1.90;;
4452;SDS011;2239;48.152;11.584;2023-05-07T06:07:04;2.10;;;1.23;;
4452;SDS011;2239;48.152;11.584;2023-05-07T06:09:30;2.10;;;1.57;;
4452;SDS011;2239;48.152;11.584;2023-05-07T06:11:56;4.23;;;1.97;;
4452;SDS011;2239;48.152;11.584;2023-05-07T06:14:21;3.97;;;1.70;;
4452;SDS011;2239;48.152;11.584;2023-05-07T06:16:47;5.30;;;2.30;;
4452;SDS011;2239;48.152;11.584;2023-05-07T06:19:12;2.07;;;1.73;;
4452;SDS011;2239;48.152;11.584;2023-05-07T06:21:38;4.73;;;1.87;;
4452;SDS011;2239;48.152;11.584;2023-05-07T06:24:05;3.37;;;1.90;;
4452;SDS011;2239;48.152;11.584;2023-05-07T06:26:30;3.60;;;1.50;;
4452;SDS011;2239;48.152;11.584;2023-05-07T06:28:56;2.07;;;1.50;;
4452;SDS011;2239;48.152;11.584;2023-05-07T06:31:22;1.70;;;1.37;;
4452;SDS011;2239;48.152;11.584;2023-05-07T06:33:48;3.50;;;1.53;;
4452;SDS011;2239;48.152;11.584;2023-05-07T06:36:14;2.70;;;1.60;;
4452;SDS011;2239;48.152;11.584;2023-05-07T06:38:40;2.17;;;1.43;;
4452;SDS011;2239;48.152;11.584;2023-05-07T06:41:06;1.60;;;1.50;;
4452;SDS011;2239;48.152;11.584;2023-05-07T06:43:31;3.60;;;1.80;;
4452;SDS011;2239;48.152;11.584;2023-05-07T06:45:57;2.90;;;1.30;;
4452;SDS011;2239;48.152;11.584;2023-05-07T06:48:23;1.40;;;1.30;;
4452;SDS011;2239;48.152;11.584;2023-05-07T06:50:48;1.30;;;1.07;;
4452;SDS011;2239;48.152;11.584;2023-05-07T06:53:14;2.53;;;1.37;;
4452;SDS011;2239;48.152;11.584;2023-05-07T06:55:40;1.70;;;1.50;;
4452;SDS011;2239;48.152;11.584;2023-05-07T06:58:06;2.40;;;1.80;;
4452;SDS011;2239;48.152;11.584;2023-05-07T07:00:32;1.90;;;1.47;;
4452;SDS011;2239;48.152;11.584;2023-05-07T07:02:58;2.10;;;1.23;;
4452;SDS011;2239;48.152;11.584;2023-05-07T07:05:25;2.43;;;1.50;;
4452;SDS011;2239;48.152;11.584;2023-05-07T07:07:50;1.87;;;1.67;;
4452;SDS011;2239;48.152;11.584;2023-05-07T07:10:19;2.40;;;1.40;;
4452;SDS011;2239;48.152;11.584;2023-05-07T07:12:48;1.90;;;1.23;;
4452;SDS011;2239;48.152;11.584;2023-05-07T07:15:14;2.60;;;1.33;;
4452;SDS011;2239;48.152;11.584;2023-05-07T07:17:40;3.30;;;1.50;;
4452;SDS011;2239;48.152;11.584;2023-05-07T07:20:06;4.40;;;1.63;;
4452;SDS011;2239;48.152;11.584;2023-05-07T07:22:32;4.33;;;1.90;;
4452;SDS011;2239;48.152;11.584;2023-05-07T07:24:57;7.03;;;1.67;;
4452;SDS011;2239;48.152;11.584;2023-05-07T07:27:23;3.37;;;2.07;;
4452;SDS011;2239;48.152;11.584;2023-05-07T07:29:48;3.67;;;1.53;;
4452;SDS011;2239;48.152;11.584;2023-05-07T07:32:14;3.67;;;1.60;;
4452;SDS011;2239;48.152;11.584;2023-05-07T07:34:40;2.37;;;1.43;;
4452;SDS011;2239;48.152;11.584;2023-05-07T07:37:05;1.67;;;1.30;;
4452;SDS011;2239;48.152;11.584;2023-05-07T07:39:34;3.00;;;1.80;;
4452;SDS011;2239;48.152;11.584;2023-05-07T07:42:00;2.03;;;1.40;;
4452;SDS011;2239;48.152;11.584;2023-05-07T07:44:25;2.73;;;1.90;;
4452;SDS011;2239;48.152;11.584;2023-05-07T07:46:52;2.63;;;1.67;;
4452;SDS011;2239;48.152;11.584;2023-05-07T07:49:17;3.07;;;1.90;;
4452;SDS011;2239;48.152;11.584;2023-05-07T07:51:43;4.00;;;1.70;;
4452;SDS011;2239;48.152;11.584;2023-05-07T07:54:08;1.93;;;1.50;;
4452;SDS011;2239;48.152;11.584;2023-05-07T07:56:34;3.27;;;1.93;;
4452;SDS011;2239;48.152;11.584;2023-05-07T07:59:00;2.17;;;1.70;;
4452;SDS011;2239;48.152;11.584;2023-05-07T08:01:26;2.87;;;1.40;;
4452;SDS011;2239;48.152;11.584;2023-05-07T08:03:52;2.43;;;1.70;;
4452;SDS011;2239;48.152;11.584;2023-05-07T08:06:17;2.20;;;1.57;;
4452;SDS011;2239;48.152;11.584;2023-05-07T08:08:43;3.47;;;1.90;;
4452;SDS011;2239;48.152;11.584;2023-05-07T08:11:09;2.93;;;1.77;;
4452;SDS011;2239;48.152;11.584;2023-05-07T08:13:35;1.50;;;1.40;;
4452;SDS011;2239;48.152;11.584;2023-05-07T08:16:01;1.93;;;1.33;;
4452;SDS011;2239;48.152;11.584;2023-05-07T08:18:27;1.90;;;1.50;;
4452;SDS011;2239;48.152;11.584;2023-05-07T08:20:53;3.17;;;1.60;;
4452;SDS011;2239;48.152;11.584;2023-05-07T08:23:21;5.23;;;1.83;;
4452;SDS011;2239;48.152;11.584;2023-05-07T08:25:47;1.80;;;1.20;;
4452;SDS011;2239;48.152;11.584;2023-05-07T08:28:14;2.93;;;1.40;;
4452;SDS011;2239;48.152;11.584;2023-05-07T08:30:39;2.43;;;1.57;;
4452;SDS011;2239;48.152;11.584;2023-05-07T08:33:05;3.63;;;1.67;;
4452;SDS011;2239;48.152;11.584;2023-05-07T08:35:31;4.70;;;1.70;;
4452;SDS011;2239;48.152;11.584;2023-05-07T08:37:56;2.50;;;1.40;;
4452;SDS011;2239;48.152;11.584;2023-05-07T08:40:23;2.20;;;1.70;;
4452;SDS011;2239;48.152;11.584;2023-05-07T08:42:51;3.13;;;1.57;;
4452;SDS011;2239;48.152;11.584;2023-05-07T08:45:18;2.87;;;2.00;;
4452;SDS011;2239;48.152;11.584;2023-05-07T08:47:46;2.33;;;1.40;;
4452;SDS011;2239;48.152;11.584;2023-05-07T08:50:15;1.33;;;1.23;;
4452;SDS011;2239;48.152;11.584;2023-05-07T08:52:41;3.03;;;1.60;;
4452;SDS011;2239;48.152;11.584;2023-05-07T08:55:07;1.73;;;1.27;;
4452;SDS011;2239;48.152;11.584;2023-05-07T08:57:34;2.10;;;1.50;;
4452;SDS011;2239;48.152;11.584;2023-05-07T09:00:00;2.13;;;1.50;;
4452;SDS011;2239;48.152;11.584;2023-05-07T09:02:26;2.57;;;1.77;;
4452;SDS011;2239;48.152;11.584;2023-05-07T09:04:52;2.53;;;1.43;;
4452;SDS011;2239;48.152;11.584;2023-05-07T09:07:18;1.73;;;1.50;;
4452;SDS011;2239;48.152;11.584;2023-05-07T09:09:45;2.17;;;1.53;;
4452;SDS011;2239;48.152;11.584;2023-05-07T09:12:11;2.10;;;1.70;;
4452;SDS011;2239;48.152;11.584;2023-05-07T09:14:37;2.67;;;1.50;;
4452;SDS011;2239;48.152;11.584;2023-05-07T09:17:03;2.63;;;1.97;;
4452;SDS011;2239;48.152;11.584;2023-05-07T09:19:29;2.23;;;1.57;;
4452;SDS011;2239;48.152;11.584;2023-05-07T09:21:58;4.00;;;1.87;;
4452;SDS011;2239;48.152;11.584;2023-05-07T09:24:25;3.07;;;1.53;;
4452;SDS011;2239;48.152;11.584;2023-05-07T09:26:53;2.20;;;1.67;;
4452;SDS011;2239;48.152;11.584;2023-05-07T09:29:20;2.50;;;1.73;;
4452;SDS011;2239;48.152;11.584;2023-05-07T09:31:46;3.33;;;1.87;;
4452;SDS011;2239;48.152;11.584;2023-05-07T09:34:11;2.00;;;1.70;;
4452;SDS011;2239;48.152;11.584;2023-05-07T09:36:37;1.93;;;1.57;;
4452;SDS011;2239;48.152;11.584;2023-05-07T09:39:02;2.93;;;1.50;;
4452;SDS011;2239;48.152;11.584;2023-05-07T09:41:29;2.27;;;1.63;;
4452;SDS011;2239;48.152;11.584;2023-05-07T09:43:56;1.63;;;1.40;;
4452;SDS011;2239;48.152;11.584;2023-05-07T09:46:32;1.90;;;1.30;;
4452;SDS011;2239;48.152;11.584;2023-05-07T09:49:01;2.57;;;1.50;;
4452;SDS011;2239;48.152;11.584;2023-05-07T09:51:34;2.73;;;1.60;;
4452;SDS011;2239;48.152;11.584;2023-05-07T09:54:08;1.67;;;1.43;;
4452;SDS011;2239;48.152;11.584;2023-05-07T09:56:35;2.50;;;1.83;;
4452;SDS011;2239;48.152;11.584;2023-05-07T09:59:02;4.37;;;1.87;;
4452;SDS011;2239;48.152;11.584;2023-05-07T10:01:30;3.13;;;1.77;;
4452;SDS011;2239;48.152;11.584;2023-05-07T10:03:56;2.70;;;1.63;;
4452;SDS011;2239;48.152;11.584;2023-05-07T10:06:23;1.73;;;1.10;;
4452;SDS011;2239;48.152;11.584;2023-05-07T10:08:53;2.70;;;1.17;;
4452;SDS011;2239;48.152;11.584;2023-05-07T10:11:20;1.47;;;1.23;;
4452;SDS011;2239;48.152;11.584;2023-05-07T10:13:48;2.47;;;1.50;;
4452;SDS011;2239;48.152;11.584;2023-05-07T10:16:13;1.70;;;1.27;;
4452;SDS011;2239;48.152;11.584;2023-05-07T10:18:42;3.17;;;1.73;;
4452;SDS011;2239;48.152;11.584;2023-05-07T10:21:10;1.80;;;1.33;;
4452;SDS011;2239;48.152;11.584;2023-05-07T10:23:40;2.30;;;1.47;;
4452;SDS011;2239;48.152;11.584;2023-05-07T10:26:09;2.70;;;1.30;;
4452;SDS011;2239;48.152;11.584;2023-05-07T10:28:37;3.47;;;1.67;;
4452;SDS011;2239;48.152;11.584;2023-05-07T10:31:18;1.60;;;1.20;;
4452;SDS011;2239;48.152;11.584;2023-05-07T10:33:49;2.47;;;1.50;;
4452;SDS011;2239;48.152;11.584;2023-05-07T10:36:17;1.73;;;1.30;;
4452;SDS011;2239;48.152;11.584;2023-05-07T10:38:44;2.20;;;1.27;;
4452;SDS011;2239;48.152;11.584;2023-05-07T10:41:11;2.60;;;1.70;;
4452;SDS011;2239;48.152;11.584;2023-05-07T10:43:43;1.73;;;1.50;;
4452;SDS011;2239;48.152;11.584;2023-05-07T10:46:19;1.77;;;1.30;;
4452;SDS011;2239;48.152;11.584;2023-05-07T10:51:33;2.10;;;1.50;;
4452;SDS011;2239;48.152;11.584;2023-05-07T10:56:34;1.57;;;1.30;;
4452;SDS011;2239;48.152;11.584;2023-05-07T11:01:53;2.60;;;1.70;;
4452;SDS011;2239;48.152;11.584;2023-05-07T11:04:20;2.60;;;1.70;;
4452;SDS011;2239;48.152;11.584;2023-05-07T11:12:45;1.40;;;1.30;;
4452;SDS011;2239;48.152;11.584;2023-05-07T11:15:06;3.07;;;1.63;;
4452;SDS011;2239;48.152;11.584;2023-05-07T11:17:33;2.27;;;1.70;;
4452;SDS011;2239;48.152;11.584;2023-05-07T11:20:00;2.00;;;1.13;;
4452;SDS011;2239;48.152;11.584;2023-05-07T11:24:55;2.13;;;1.47;;
4452;SDS011;2239;48.152;11.584;2023-05-07T11:27:25;3.90;;;1.77;;
4452;SDS011;2239;48.152;11.584;2023-05-07T11:29:51;2.67;;;1.70;;
4452;SDS011;2239;48.152;11.584;2023-05-07T11:32:27;6.50;;;1.43;;
4452;SDS011;2239;48.152;11.584;2023-05-07T11:34:55;4.27;;;1.37;;
4452;SDS011;2239;48.152;11.584;2023-05-07T11:37:22;1.83;;;1.50;;
4452;SDS011;2239;48.152;11.584;2023-05-07T11:39:49;1.90;;;1.53;;
4452;SDS011;2239;48.152;11.584;2023-05-07T11:42:28;2.60;;;1.43;;
4452;SDS011;2239;48.152;11.584;2023-05-07T11:44:55;2.67;;;1.70;;
4452;SDS011;2239;48.152;11.584;2023-05-07T11:47:21;2.53;;;1.50;;
4452;SDS011;2239;48.152;11.584;2023-05-07T11:49:50;2.53;;;1.80;;
4452;SDS011;2239;48.152;11.584;2023-05-07T11:52:17;3.63;;;2.10;;
4452;SDS011;2239;48.152;11.584;2023-05-07T11:57:15;4.10;;;1.60;;
4452;SDS011;2239;48.152;11.584;2023-05-07T11:59:41;3.87;;;2.00;;
4452;SDS011;2239;48.152;11.584;2023-05-07T12:02:09;3.10;;;1.90;;
4452;SDS011;2239;48.152;11.584;2023-05-07T12:04:34;2.40;;;1.43;;
4452;SDS011;2239;48.152;11.584;2023-05-07T12:07:00;2.80;;;1.80;;
4452;SDS011;2239;48.152;11.584;2023-05-07T12:09:26;2.63;;;1.50;;
4452;SDS011;2239;48.152;11.584;2023-05-07T12:11:51;3.70;;;1.70;;
4452;SDS011;2239;48.152;11.584;2023-05-07T12:14:18;2.87;;;1.70;;
4452;SDS011;2239;48.152;11.584;2023-05-07T12:16:44;4.13;;;1.60;;
4452;SDS011;2239;48.152;11.584;2023-05-07T12:19:10;3.83;;;1.80;;
4452;SDS011;2239;48.152;11.584;2023-05-07T12:21:40;2.93;;;1.83;;
4452;SDS011;2239;48.152;11.584;2023-05-07T12:24:06;2.93;;;1.83;;
4452;SDS011;2239;48.152;11.584;2023-05-07T12:26:33;2.63;;;1.67;;
4452;SDS011;2239;48.152;11.584;2023-05-07T12:29:06;1.63;;;1.40;;
4452;SDS011;2239;48.152;11.584;2023-05-07T12:31:32;3.27;;;1.83;;
4452;SDS011;2239;48.152;11.584;2023-05-07T12:33:58;2.03;;;1.40;;
4452;SDS011;2239;48.152;11.584;2023-05-07T12:36:23;1.70;;;1.07;;
4452;SDS011;2239;48.152;11.584;2023-05-07T12:38:50;1.70;;;1.37;;
4452;SDS011;2239;48.152;11.584;2023-05-07T12:41:16;1.67;;;1.20;;
4452;SDS011;2239;48.152;11.584;2023-05-07T12:43:46;2.47;;;1.40;;
4452;SDS011;2239;48.152;11.584;2023-05-07T12:46:12;1.87;;;1.50;;
4452;SDS011;2239;48.152;11.584;2023-05-07T12:48:45;2.00;;;1.57;;
4452;SDS011;2239;48.152;11.584;2023-05-07T12:51:11;4.80;;;1.40;;
4452;SDS011;2239;48.152;11.584;2023-05-07T12:53:41;1.37;;;1.20;;
4452;SDS011;2239;48.152;11.584;2023-05-07T12:56:07;3.90;;;1.70;;
4452;SDS011;2239;48.152;11.584;2023-05-07T12:58:34;1.50;;;1.10;;
4452;SDS011;2239;48.152;11.584;2023-05-07T13:01:05;2.40;;;1.40;;
4452;SDS011;2239;48.152;11.584;2023-05-07T13:03:33;1.60;;;1.33;;
4452;SDS011;2239;48.152;11.584;2023-05-07T13:06:01;2.00;;;1.30;;
4452;SDS011;2239;48.152;11.584;2023-05-07T13:08:30;2.43;;;1.10;;
4452;SDS011;2239;48.152;11.584;2023-05-07T13:10:57;1.73;;;1.60;;
4452;SDS011;2239;48.152;11.584;2023-05-07T13:13:25;2.63;;;1.17;;
4452;SDS011;2239;48.152;11.584;2023-05-07T13:15:50;2.70;;;1.37;;
4452;SDS011;2239;48.152;11.584;2023-05-07T13:18:16;1.43;;;1.20;;
4452;SDS011;2239;48.152;11.584;2023-05-07T13:20:42;0.77;;;0.73;;
4452;SDS011;2239;48.152;11.584;2023-05-07T13:23:08;2.13;;;1.40;;
4452;SDS011;2239;48.152;11.584;2023-05-07T13:25:33;0.97;;;0.80;;
4452;SDS011;2239;48.152;11.584;2023-05-07T13:27:59;4.80;;;1.67;;
4452;SDS011;2239;48.152;11.584;2023-05-07T13:30:25;1.10;;;1.00;;
4452;SDS011;2239;48.152;11.584;2023-05-07T13:32:51;1.50;;;1.07;;
4452;SDS011;2239;48.152;11.584;2023-05-07T13:35:20;6.73;;;1.30;;
4452;SDS011;2239;48.152;11.584;2023-05-07T13:37:46;1.13;;;1.03;;
4452;SDS011;2239;48.152;11.584;2023-05-07T13:40:13;1.13;;;1.03;;
4452;SDS011;2239;48.152;11.584;2023-05-07T13:42:38;2.80;;;1.10;;
4452;SDS011;2239;48.152;11.584;2023-05-07T13:45:04;2.17;;;1.30;;
4452;SDS011;2239;48.152;11.584;2023-05-07T13:47:30;1.10;;;1.00;;
4452;SDS011;2239;48.152;11.584;2023-05-07T13:49:56;2.50;;;1.10;;
4452;SDS011;2239;48.152;11.584;2023-05-07T13:52:21;1.37;;;1.10;;
4452;SDS011;2239;48.152;11.584;2023-05-07T13:54:47;3.83;;;1.40;;
4452;SDS011;2239;48.152;11.584;2023-05-07T13:57:12;2.23;;;1.60;;
4452;SDS011;2239;48.152;11.584;2023-05-07T13:59:38;1.13;;;1.00;;
4452;SDS011;2239;48.152;11.584;2023-05-07T14:02:04;1.70;;;1.13;;
4452;SDS011;2239;48.152;11.584;2023-05-07T14:04:30;2.63;;;1.50;;
4452;SDS011;2239;48.152;11.584;2023-05-07T14:06:56;1.10;;;1.00;;
4452;SDS011;2239;48.152;11.584;2023-05-07T14:09:21;1.80;;;1.23;;
4452;SDS011;2239;48.152;11.584;2023-05-07T14:11:47;2.27;;;1.30;;
4452;SDS011;2239;48.152;11.584;2023-05-07T14:14:16;1.53;;;1.30;;
4452;SDS011;2239;48.152;11.584;2023-05-07T14:16:42;1.23;;;1.00;;
4452;SDS011;2239;48.152;11.584;2023-05-07T14:19:07;2.80;;;1.53;;
4452;SDS011;2239;48.152;11.584;2023-05-07T14:21:33;2.80;;;1.53;;
4452;SDS011;2239;48.152;11.584;2023-05-07T14:23:58;1.40;;;1.30;;
4452;SDS011;2239;48.152;11.584;2023-05-07T14:26:25;2.10;;;1.20;;
4452;SDS011;2239;48.152;11.584;2023-05-07T14:28:52;1.33;;;1.13;;
4452;SDS011;2239;48.152;11.584;2023-05-07T14:31:19;2.60;;;1.40;;
4452;SDS011;2239;48.152;11.584;2023-05-07T14:33:45;1.43;;;1.20;;
4452;SDS011;2239;48.152;11.584;2023-05-07T14:36:11;2.57;;;1.57;;
4452;SDS011;2239;48.152;11.584;2023-05-07T14:38:37;3.50;;;1.80;;
4452;SDS011;2239;48.152;11.584;2023-05-07T14:41:03;1.43;;;1.20;;
4452;SDS011;2239;48.152;11.584;2023-05-07T14:43:28;3.30;;;1.43;;
4452;SDS011;2239;48.152;11.584;2023-05-07T14:45:54;1.60;;;1.33;;
4452;SDS011;2239;48.152;11.584;2023-05-07T14:48:20;1.77;;;1.43;;
4452;SDS011;2239;48.152;11.584;2023-05-07T14:50:48;1.87;;;1.50;;
4452;SDS011;2239;48.152;11.584;2023-05-07T14:53:14;3.40;;;2.00;;
4452;SDS011;2239;48.152;11.584;2023-05-07T14:55:40;2.97;;;1.37;;
4452;SDS011;2239;48.152;11.584;2023-05-07T14:58:05;2.47;;;1.80;;
4452;SDS011;2239;48.152;11.584;2023-05-07T15:00:31;2.20;;;1.23;;
4452;SDS011;2239;48.152;11.584;2023-05-07T15:03:01;4.20;;;1.53;;
4452;SDS011;2239;48.152;11.584;2023-05-07T15:05:31;4.03;;;1.73;;
4452;SDS011;2239;48.152;11.584;2023-05-07T15:07:57;1.73;;;1.63;;
4452;SDS011;2239;48.152;11.584;2023-05-07T15:10:22;3.00;;;1.80;;
4452;SDS011;2239;48.152;11.584;2023-05-07T15:12:48;1.93;;;1.40;;
4452;SDS011;2239;48.152;11.584;2023-05-07T15:15:13;4.70;;;2.70;;